createdAt,value
2016-04-25T00:00:02.653Z,0
2016-04-25T00:01:02.641Z,0
2016-04-25T00:02:02.643Z,0
2016-04-25T00:03:02.613Z,0
2016-04-25T00:04:02.585Z,0
2016-04-25T00:05:02.558Z,0
2016-04-25T00:06:02.544Z,0
2016-04-25T00:07:02.515Z,0
2016-04-25T00:08:02.502Z,0
2016-04-25T00:09:02.489Z,0
2016-04-25T00:10:02.461Z,0
2016-04-25T00:11:02.449Z,0
2016-04-25T00:12:03.076Z,0
2016-04-25T00:13:03.062Z,0
2016-04-25T00:14:02.393Z,0
2016-04-25T00:15:02.365Z,0
2016-04-25T00:16:02.352Z,0
2016-04-25T00:17:02.340Z,0
2016-04-25T00:18:02.311Z,0
2016-04-25T00:19:02.297Z,0
2016-04-25T00:20:06.284Z,0
2016-04-25T00:21:02.273Z,0
2016-04-25T00:22:01.508Z,0
2016-04-25T00:23:02.220Z,0
2016-04-25T00:24:02.207Z,0
2016-04-25T00:25:02.195Z,0
2016-04-25T00:26:02.165Z,0
2016-04-25T00:27:03.825Z,0
2016-04-25T00:28:02.640Z,0
2016-04-25T00:29:02.111Z,0
2016-04-25T00:30:02.099Z,0
2016-04-25T00:31:02.070Z,0
2016-04-25T00:32:02.057Z,0
2016-04-25T00:33:01.873Z,0
2016-04-25T00:34:02.016Z,0
2016-04-25T00:35:02.003Z,0
2016-04-25T00:36:01.974Z,0
2016-04-25T00:37:01.946Z,0
2016-04-25T00:38:01.933Z,0
2016-04-25T00:39:01.920Z,0
2016-04-25T00:40:01.891Z,0
2016-04-25T00:41:01.878Z,0
2016-04-25T00:42:01.912Z,0
2016-04-25T00:43:01.478Z,0
2016-04-25T00:44:01.824Z,0
2016-04-25T00:45:01.811Z,0
2016-04-25T00:46:01.798Z,0
2016-04-25T00:47:01.770Z,0
2016-04-25T00:48:01.772Z,0
2016-04-25T00:49:01.728Z,0
2016-04-25T00:50:01.699Z,0
2016-04-25T00:51:01.687Z,0
2016-04-25T00:52:01.673Z,0
2016-04-25T00:53:01.661Z,0
2016-04-25T00:54:01.663Z,0
2016-04-25T00:55:01.604Z,0
2016-04-25T00:56:01.590Z,0
2016-04-25T00:57:01.422Z,0
2016-04-25T00:58:01.752Z,0
2016-04-25T00:59:01.537Z,0
2016-04-25T01:00:01.507Z,0
2016-04-25T01:01:01.541Z,0
2016-04-25T01:02:01.497Z,0
2016-04-25T01:03:01.454Z,0
2016-04-25T01:04:01.440Z,0
2016-04-25T01:05:01.428Z,0
2016-04-25T01:06:01.414Z,0
2016-04-25T01:07:01.401Z,0
2016-04-25T01:08:01.373Z,0
2016-04-25T01:09:01.361Z,0
2016-04-25T01:10:01.331Z,0
2016-04-25T01:11:01.318Z,0
2016-04-25T01:12:01.758Z,0
2016-04-25T01:13:01.714Z,0
2016-04-25T01:14:01.249Z,0
2016-04-25T01:15:01.266Z,0
2016-04-25T01:16:01.207Z,0
2016-04-25T01:17:01.210Z,0
2016-04-25T01:18:01.181Z,0
2016-04-25T01:19:01.183Z,0
2016-04-25T01:20:01.155Z,0
2016-04-25T01:21:01.126Z,0
2016-04-25T01:22:01.099Z,0
2016-04-25T01:23:01.101Z,0
2016-04-25T01:24:01.087Z,0
2016-04-25T01:25:01.043Z,0
2016-04-25T01:26:01.046Z,0
2016-04-25T01:27:01.018Z,0
2016-04-25T01:28:01.693Z,0
2016-04-25T01:29:00.820Z,0
2016-04-25T01:30:00.948Z,0
2016-04-25T01:31:00.966Z,0
2016-04-25T01:32:00.922Z,0
2016-04-25T01:33:00.909Z,0
2016-04-25T01:34:00.881Z,0
2016-04-25T01:35:00.867Z,0
2016-04-25T01:36:00.839Z,0
2016-04-25T01:37:00.826Z,0
2016-04-25T01:38:00.813Z,0
2016-04-25T01:39:00.941Z,0
2016-04-25T01:40:00.772Z,0
2016-04-25T01:41:00.743Z,0
2016-04-25T01:42:00.745Z,0
2016-04-25T01:43:01.044Z,0
2016-04-25T01:44:00.704Z,0
2016-04-25T01:45:00.660Z,0
2016-04-25T01:46:00.647Z,0
2016-04-25T01:47:00.634Z,0
2016-04-25T01:48:00.605Z,0
2016-04-25T01:49:00.608Z,0
2016-04-25T01:50:00.424Z,0
2016-04-25T01:51:00.566Z,0
2016-04-25T01:52:00.538Z,0
2016-04-25T01:53:00.541Z,0
2016-04-25T01:54:00.513Z,0
2016-04-25T01:55:00.484Z,0
2016-04-25T01:56:00.455Z,0
2016-04-25T01:57:00.442Z,0
2016-04-25T01:58:00.413Z,0
2016-04-25T01:59:00.401Z,0
2016-04-25T02:00:00.372Z,0
2016-04-25T02:01:00.360Z,0
2016-04-25T02:02:00.331Z,0
2016-04-25T02:03:00.331Z,0
2016-04-25T02:04:00.287Z,0
2016-04-25T02:05:00.273Z,0
2016-04-25T02:06:00.261Z,0
2016-04-25T02:07:00.248Z,0
2016-04-25T02:08:00.235Z,0
2016-04-25T02:09:00.222Z,0
2016-04-25T02:10:00.178Z,0
2016-04-25T02:11:00.164Z,0
2016-04-25T02:12:00.153Z,0
2016-04-25T02:13:00.592Z,0
2016-04-25T02:14:00.110Z,0
2016-04-25T02:15:00.097Z,0
2016-04-25T02:16:00.084Z,0
2016-04-25T02:17:00.056Z,0
2016-04-25T02:18:00.043Z,0
2016-04-25T02:19:00.014Z,0
2016-04-25T02:20:00.016Z,0
2016-04-25T02:20:59.988Z,0
2016-04-25T02:21:59.961Z,0
2016-04-25T02:22:59.947Z,0
2016-04-25T02:23:59.918Z,0
2016-04-25T02:24:59.905Z,0
2016-04-25T02:25:59.907Z,0
2016-04-25T02:26:59.896Z,0
2016-04-25T02:27:59.774Z,0
2016-04-25T02:28:59.837Z,0
2016-04-25T02:29:59.810Z,0
2016-04-25T02:30:59.796Z,0
2016-04-25T02:31:59.768Z,0
2016-04-25T02:32:59.755Z,0
2016-04-25T02:33:59.743Z,0
2016-04-25T02:34:59.715Z,0
2016-04-25T02:35:59.701Z,0
2016-04-25T02:36:59.672Z,0
2016-04-25T02:37:59.659Z,0
2016-04-25T02:38:59.630Z,0
2016-04-25T02:39:59.648Z,0
2016-04-25T02:40:59.637Z,0
2016-04-25T02:41:59.608Z,0
2016-04-25T02:42:59.892Z,0
2016-04-25T02:43:59.394Z,0
2016-04-25T02:44:59.522Z,0
2016-04-25T02:45:59.509Z,0
2016-04-25T02:46:59.481Z,0
2016-04-25T02:47:59.467Z,0
2016-04-25T02:48:59.455Z,0
2016-04-25T02:49:59.442Z,0
2016-04-25T02:50:59.413Z,0
2016-04-25T02:51:59.400Z,0
2016-04-25T02:52:59.372Z,0
2016-04-25T02:53:59.358Z,0
2016-04-25T02:54:59.330Z,0
2016-04-25T02:55:59.316Z,0
2016-04-25T02:56:59.305Z,0
2016-04-25T02:57:59.822Z,0
2016-04-25T02:58:59.263Z,0
2016-04-25T02:59:59.250Z,0
2016-04-25T03:00:59.221Z,0
2016-04-25T03:01:59.208Z,0
2016-04-25T03:02:59.195Z,0
2016-04-25T03:03:59.168Z,0
2016-04-25T03:04:59.154Z,0
2016-04-25T03:05:59.140Z,0
2016-04-25T03:06:59.113Z,0
2016-04-25T03:07:59.084Z,0
2016-04-25T03:08:59.070Z,0
2016-04-25T03:09:59.073Z,0
2016-04-25T03:10:59.061Z,0
2016-04-25T03:11:59.032Z,0
2016-04-25T03:12:59.706Z,0
2016-04-25T03:13:58.975Z,0
2016-04-25T03:14:58.962Z,0
2016-04-25T03:15:58.933Z,0
2016-04-25T03:16:58.905Z,0
2016-04-25T03:17:58.892Z,0
2016-04-25T03:18:58.894Z,0
2016-04-25T03:19:58.867Z,0
2016-04-25T03:20:58.838Z,0
2016-04-25T03:21:58.840Z,0
2016-04-25T03:22:58.811Z,0
2016-04-25T03:23:58.783Z,0
2016-04-25T03:24:58.769Z,0
2016-04-25T03:25:58.757Z,0
2016-04-25T03:26:58.572Z,0
2016-04-25T03:27:58.575Z,0
2016-04-25T03:28:57.952Z,0
2016-04-25T03:29:58.674Z,0
2016-04-25T03:30:58.660Z,0
2016-04-25T03:31:58.632Z,0
2016-04-25T03:32:58.621Z,0
2016-04-25T03:33:58.606Z,0
2016-04-25T03:34:58.579Z,0
2016-04-25T03:35:58.565Z,0
2016-04-25T03:36:58.552Z,0
2016-04-25T03:37:58.524Z,0
2016-04-25T03:38:58.495Z,0
2016-04-25T03:39:58.498Z,0
2016-04-25T03:40:58.469Z,4
2016-04-25T03:41:58.456Z,4
2016-04-25T03:42:58.678Z,0
2016-04-25T03:43:58.696Z,0
2016-04-25T03:44:58.386Z,4
2016-04-25T03:45:58.358Z,4
2016-04-25T03:46:58.345Z,4
2016-04-25T03:47:58.332Z,4
2016-04-25T03:48:58.319Z,4
2016-04-25T03:49:58.322Z,4
2016-04-25T03:50:58.278Z,8
2016-04-25T03:51:58.264Z,8
2016-04-25T03:52:58.236Z,8
2016-04-25T03:53:58.239Z,12
2016-04-25T03:54:58.210Z,12
2016-04-25T03:55:58.182Z,20
2016-04-25T03:56:58.169Z,20
2016-04-25T03:57:58.531Z,24
2016-04-25T03:58:57.908Z,28
2016-04-25T03:59:58.113Z,36
2016-04-25T04:00:58.101Z,40
2016-04-25T04:01:58.074Z,48
2016-04-25T04:02:58.076Z,56
2016-04-25T04:03:58.046Z,60
2016-04-25T04:04:58.034Z,72
2016-04-25T04:05:58.005Z,80
2016-04-25T04:06:57.993Z,96
2016-04-25T04:07:57.964Z,108
2016-04-25T04:08:57.951Z,124
2016-04-25T04:09:57.923Z,144
2016-04-25T04:10:57.926Z,164
2016-04-25T04:11:57.881Z,184
2016-04-25T04:12:57.742Z,204
2016-04-25T04:13:57.870Z,232
2016-04-25T04:14:57.843Z,260
2016-04-25T04:15:57.814Z,288
2016-04-25T04:16:57.801Z,316
2016-04-25T04:17:57.787Z,348
2016-04-25T04:18:57.603Z,384
2016-04-25T04:19:57.747Z,416
2016-04-25T04:20:57.733Z,452
2016-04-25T04:21:57.721Z,488
2016-04-25T04:22:57.692Z,520
2016-04-25T04:23:57.679Z,552
2016-04-25T04:24:57.650Z,588
2016-04-25T04:25:57.638Z,628
2016-04-25T04:26:57.608Z,672
2016-04-25T04:27:57.722Z,724
2016-04-25T04:28:58.239Z,772
2016-04-25T04:29:57.555Z,832
2016-04-25T04:30:57.541Z,900
2016-04-25T04:31:57.529Z,984
2016-04-25T04:32:57.499Z,1068
2016-04-25T04:33:57.488Z,1144
2016-04-25T04:34:57.458Z,1228
2016-04-25T04:35:57.461Z,1324
2016-04-25T04:36:57.448Z,1420
2016-04-25T04:37:57.435Z,1508
2016-04-25T04:38:57.391Z,1592
2016-04-25T04:39:57.378Z,1672
2016-04-25T04:40:57.365Z,1780
2016-04-25T04:41:57.337Z,1908
2016-04-25T04:42:59.090Z,2052
2016-04-25T04:43:58.139Z,2180
2016-04-25T04:44:57.298Z,2312
2016-04-25T04:45:57.269Z,2436
2016-04-25T04:46:57.257Z,2568
2016-04-25T04:47:57.228Z,2704
2016-04-25T04:48:57.231Z,2860
2016-04-25T04:49:57.186Z,3016
2016-04-25T04:50:57.173Z,3176
2016-04-25T04:51:57.161Z,3348
2016-04-25T04:52:57.148Z,3508
2016-04-25T04:53:57.134Z,3700
2016-04-25T04:54:57.106Z,3952
2016-04-25T04:55:57.093Z,4208
2016-04-25T04:56:57.064Z,4464
2016-04-25T04:57:57.692Z,4664
2016-04-25T04:58:58.288Z,4916
2016-04-25T04:59:57.025Z,5084
2016-04-25T05:00:56.997Z,5216
2016-04-25T05:01:56.985Z,5260
2016-04-25T05:02:56.987Z,5352
2016-04-25T05:03:56.958Z,5480
2016-04-25T05:04:56.946Z,5592
2016-04-25T05:05:56.917Z,5716
2016-04-25T05:06:56.888Z,5832
2016-04-25T05:07:56.891Z,5840
2016-04-25T05:08:56.862Z,5884
2016-04-25T05:09:56.865Z,5900
2016-04-25T05:10:56.837Z,5968
2016-04-25T05:11:56.824Z,6132
2016-04-25T05:12:56.831Z,6288
2016-04-25T05:13:57.471Z,6368
2016-04-25T05:14:56.894Z,6428
2016-04-25T05:15:56.940Z,6428
2016-04-25T05:16:56.955Z,6392
2016-04-25T05:17:56.948Z,6580
2016-04-25T05:18:56.951Z,6572
2016-04-25T05:19:56.954Z,6092
2016-04-25T05:20:56.957Z,5972
2016-04-25T05:21:56.944Z,5848
2016-04-25T05:22:56.938Z,5744
2016-04-25T05:23:56.947Z,5656
2016-04-25T05:24:56.925Z,5628
2016-04-25T05:25:57.042Z,5684
2016-04-25T05:26:56.894Z,5816
2016-04-25T05:27:57.180Z,5964
2016-04-25T05:28:57.639Z,6076
2016-04-25T05:29:56.861Z,6084
2016-04-25T05:30:56.852Z,6000
2016-04-25T05:31:56.840Z,5928
2016-04-25T05:32:56.827Z,5908
2016-04-25T05:33:56.785Z,5888
2016-04-25T05:34:56.788Z,5868
2016-04-25T05:35:56.776Z,5672
2016-04-25T05:36:56.779Z,5484
2016-04-25T05:37:56.752Z,5404
2016-04-25T05:38:56.738Z,5316
2016-04-25T05:39:56.711Z,5212
2016-04-25T05:40:56.698Z,5100
2016-04-25T05:41:56.670Z,5184
2016-04-25T05:42:56.547Z,5404
2016-04-25T05:43:57.629Z,5632
2016-04-25T05:44:56.631Z,5872
2016-04-25T05:45:56.649Z,6316
2016-04-25T05:46:56.605Z,6800
2016-04-25T05:47:56.577Z,7228
2016-04-25T05:48:56.564Z,7544
2016-04-25T05:49:56.536Z,8080
2016-04-25T05:50:56.522Z,8688
2016-04-25T05:51:56.524Z,9300
2016-04-25T05:52:56.544Z,9880
2016-04-25T05:53:56.483Z,10484
2016-04-25T05:54:56.470Z,11256
2016-04-25T05:55:56.442Z,12064
2016-04-25T05:56:56.476Z,12720
2016-04-25T05:57:56.416Z,13180
2016-04-25T05:58:56.419Z,13288
2016-04-25T05:59:56.390Z,12732
2016-04-25T06:00:56.377Z,12120
2016-04-25T06:01:56.348Z,11248
2016-04-25T06:02:56.336Z,10568
2016-04-25T06:03:56.307Z,10020
2016-04-25T06:04:56.293Z,9868
2016-04-25T06:05:56.282Z,9868
2016-04-25T06:06:56.299Z,9992
2016-04-25T06:07:56.256Z,10224
2016-04-25T06:08:56.274Z,10748
2016-04-25T06:09:56.214Z,11336
2016-04-25T06:10:56.201Z,11888
2016-04-25T06:11:56.187Z,12352
2016-04-25T06:12:55.315Z,13136
2016-04-25T06:13:55.959Z,14316
2016-04-25T06:14:56.150Z,14244
2016-04-25T06:15:56.136Z,13900
2016-04-25T06:16:56.108Z,13784
2016-04-25T06:17:56.095Z,13916
2016-04-25T06:18:56.081Z,13892
2016-04-25T06:19:56.053Z,13864
2016-04-25T06:20:56.056Z,13492
2016-04-25T06:21:56.043Z,12888
2016-04-25T06:22:56.015Z,12792
2016-04-25T06:23:55.987Z,13452
2016-04-25T06:24:55.989Z,14816
2016-04-25T06:25:55.976Z,16660
2016-04-25T06:26:55.964Z,17972
2016-04-25T06:27:56.139Z,18268
2016-04-25T06:28:55.656Z,18052
2016-04-25T06:29:56.175Z,17900
2016-04-25T06:30:55.897Z,17784
2016-04-25T06:31:55.883Z,17564
2016-04-25T06:32:55.870Z,17564
2016-04-25T06:33:55.858Z,17932
2016-04-25T06:34:55.829Z,18248
2016-04-25T06:35:55.817Z,18740
2016-04-25T06:36:55.803Z,19680
2016-04-25T06:37:55.790Z,21376
2016-04-25T06:38:55.794Z,29312
2016-04-25T06:39:55.763Z,24864
2016-04-25T06:40:55.752Z,28128
2016-04-25T06:41:55.738Z,28512
2016-04-25T06:42:55.726Z,30336
2016-04-25T06:43:55.962Z,28032
2016-04-25T06:44:55.544Z,26688
2016-04-25T06:45:55.687Z,26624
2016-04-25T06:46:55.690Z,27744
2016-04-25T06:47:55.660Z,30368
2016-04-25T06:48:55.649Z,31392
2016-04-25T06:49:55.634Z,30496
2016-04-25T06:50:55.638Z,30624
2016-04-25T06:51:55.609Z,28800
2016-04-25T06:52:55.612Z,27712
2016-04-25T06:53:55.583Z,28928
2016-04-25T06:54:55.634Z,29792
2016-04-25T06:55:55.589Z,28864
2016-04-25T06:56:55.545Z,26944
2016-04-25T06:57:55.594Z,25696
2016-04-25T06:58:55.597Z,26976
2016-04-25T06:59:55.772Z,27520
2016-04-25T07:00:55.509Z,28224
2016-04-25T07:01:55.511Z,28064
2016-04-25T07:02:55.497Z,27168
2016-04-25T07:03:55.485Z,26016
2016-04-25T07:04:55.456Z,24512
2016-04-25T07:05:55.459Z,23712
2016-04-25T07:06:55.447Z,23232
2016-04-25T07:07:55.449Z,22816
2016-04-25T07:08:55.421Z,23584
2016-04-25T07:09:55.408Z,24448
2016-04-25T07:10:55.426Z,25184
2016-04-25T07:11:55.397Z,26784
2016-04-25T07:12:55.385Z,28352
2016-04-25T07:13:54.793Z,29472
2016-04-25T07:14:55.374Z,27936
2016-04-25T07:15:55.346Z,29792
2016-04-25T07:16:55.332Z,27488
2016-04-25T07:17:55.320Z,27392
2016-04-25T07:18:55.307Z,27808
2016-04-25T07:19:55.294Z,28512
2016-04-25T07:20:55.281Z,27872
2016-04-25T07:21:55.284Z,28448
2016-04-25T07:22:55.254Z,29344
2016-04-25T07:23:55.257Z,30240
2016-04-25T07:24:55.245Z,31808
2016-04-25T07:25:55.217Z,31840
2016-04-25T07:26:55.203Z,29376
2016-04-25T07:27:55.206Z,28352
2016-04-25T07:28:56.084Z,27936
2016-04-25T07:29:55.180Z,27328
2016-04-25T07:30:55.167Z,28544
2016-04-25T07:31:55.154Z,28448
2016-04-25T07:32:55.142Z,29312
2016-04-25T07:33:55.128Z,30848
2016-04-25T07:34:54.366Z,32928
2016-04-25T07:35:55.103Z,37152
2016-04-25T07:36:55.105Z,36960
2016-04-25T07:37:55.077Z,41696
2016-04-25T07:38:55.094Z,44096
2016-04-25T07:39:55.083Z,45280
2016-04-25T07:40:55.069Z,45408
2016-04-25T07:41:55.056Z,43296
2016-04-25T07:42:55.027Z,40672
2016-04-25T07:43:54.890Z,38336
2016-04-25T07:44:55.017Z,39104
2016-04-25T07:45:55.021Z,40320
2016-04-25T07:46:55.054Z,42272
2016-04-25T07:47:55.260Z,43840
2016-04-25T07:48:54.981Z,44832
2016-04-25T07:49:54.968Z,47104
2016-04-25T07:50:54.971Z,48832
2016-04-25T07:51:54.989Z,49472
2016-04-25T07:52:54.961Z,45408
2016-04-25T07:53:54.963Z,52352
2016-04-25T07:54:54.935Z,54304
2016-04-25T07:55:54.923Z,52704
2016-04-25T07:56:54.909Z,42528
2016-04-25T07:57:54.911Z,59648
2016-04-25T07:58:55.212Z,40960
2016-04-25T07:59:55.011Z,55200
2016-04-25T08:00:54.904Z,65440
2016-04-25T08:01:54.876Z,31968
2016-04-25T08:02:55.019Z,62848
2016-04-25T08:03:54.959Z,63232
2016-04-25T08:04:54.884Z,44640
2016-04-25T08:05:54.886Z,51840
2016-04-25T08:06:54.858Z,22912
2016-04-25T08:07:54.861Z,32064
2016-04-25T08:08:54.878Z,54656
2016-04-25T08:09:54.928Z,60480
2016-04-25T08:10:54.838Z,66272
2016-04-25T08:11:54.887Z,66656
2016-04-25T08:12:54.836Z,72448
2016-04-25T08:13:56.167Z,77952
2016-04-25T08:14:54.811Z,75008
2016-04-25T08:15:54.859Z,75456
2016-04-25T08:16:54.815Z,73536
2016-04-25T08:17:54.803Z,78592
2016-04-25T08:18:54.805Z,42912
2016-04-25T08:19:54.777Z,70016
2016-04-25T08:20:54.779Z,60416
2016-04-25T08:21:54.641Z,65152
2016-04-25T08:22:54.770Z,78176
2016-04-25T08:23:54.773Z,64800
2016-04-25T08:24:54.775Z,46624
2016-04-25T08:25:54.762Z,88992
2016-04-25T08:26:54.750Z,78304
2016-04-25T08:27:54.783Z,43232
2016-04-25T08:28:53.848Z,82272
2016-04-25T08:29:54.742Z,66720
2016-04-25T08:30:54.745Z,33440
2016-04-25T08:31:54.731Z,59584
2016-04-25T08:32:54.750Z,36320
2016-04-25T08:33:54.736Z,40672
2016-04-25T08:34:54.709Z,30592
2016-04-25T08:35:54.727Z,43968
2016-04-25T08:36:54.714Z,63776
2016-04-25T08:37:54.716Z,73184
2016-04-25T08:38:54.704Z,71200
2016-04-25T08:39:54.691Z,58272
2016-04-25T08:40:54.713Z,31936
2016-04-25T08:41:54.670Z,38624
2016-04-25T08:42:53.782Z,63264
2016-04-25T08:43:57.768Z,34304
2016-04-25T08:44:54.679Z,31584
2016-04-25T08:45:54.649Z,32832
2016-04-25T08:46:54.637Z,37408
2016-04-25T08:47:54.639Z,61344
2016-04-25T08:48:56.564Z,46368
2016-04-25T08:49:54.629Z,35712
2016-04-25T08:50:54.772Z,32800
2016-04-25T08:51:54.618Z,35392
2016-04-25T08:52:54.621Z,65312
2016-04-25T08:53:54.983Z,65152
2016-04-25T08:54:54.595Z,66176
2016-04-25T08:55:54.598Z,72640
2016-04-25T08:56:54.694Z,48320
2016-04-25T08:57:54.588Z,59072
2016-04-25T08:58:55.091Z,48256
2016-04-25T08:59:54.562Z,67360
2016-04-25T09:00:54.564Z,63008
2016-04-25T09:01:54.552Z,44928
2016-04-25T09:02:54.554Z,63456
2016-04-25T09:03:55.635Z,66560
2016-04-25T09:04:54.513Z,59200
2016-04-25T09:05:54.625Z,55744
2016-04-25T09:06:54.533Z,48832
2016-04-25T09:07:54.505Z,53184
2016-04-25T09:08:54.508Z,43968
2016-04-25T09:09:54.496Z,45568
2016-04-25T09:10:54.482Z,61696
2016-04-25T09:11:54.469Z,42336
2016-04-25T09:12:54.471Z,47008
2016-04-25T09:13:54.396Z,42400
2016-04-25T09:14:54.493Z,41408
2016-04-25T09:15:54.448Z,45312
2016-04-25T09:16:54.486Z,41120
2016-04-25T09:17:54.442Z,41952
2016-04-25T09:18:54.430Z,47744
2016-04-25T09:19:54.416Z,67968
2016-04-25T09:20:54.404Z,68256
2016-04-25T09:21:54.422Z,69248
2016-04-25T09:22:54.488Z,46496
2016-04-25T09:23:54.505Z,50208
2016-04-25T09:24:54.508Z,65312
2016-04-25T09:25:54.370Z,67072
2016-04-25T09:26:54.357Z,55328
2016-04-25T09:27:54.360Z,56032
2016-04-25T09:28:55.613Z,41856
2016-04-25T09:29:54.693Z,40576
2016-04-25T09:30:54.321Z,38336
2016-04-25T09:31:54.323Z,42208
2016-04-25T09:32:54.312Z,58656
2016-04-25T09:33:54.314Z,54976
2016-04-25T09:34:54.331Z,46016
2016-04-25T09:35:54.303Z,48032
2016-04-25T09:36:54.290Z,56128
2016-04-25T09:37:54.278Z,51520
2016-04-25T09:38:54.264Z,50464
2016-04-25T09:39:54.267Z,46432
2016-04-25T09:40:54.254Z,45728
2016-04-25T09:41:54.272Z,47104
2016-04-25T09:42:54.338Z,48640
2016-04-25T09:43:55.231Z,44320
2016-04-25T09:44:54.280Z,48960
2016-04-25T09:45:54.236Z,43584
2016-04-25T09:46:54.239Z,48000
2016-04-25T09:47:54.195Z,47680
2016-04-25T09:48:54.197Z,44928
2016-04-25T09:49:54.200Z,47648
2016-04-25T09:50:54.266Z,41152
2016-04-25T09:51:54.190Z,39072
2016-04-25T09:52:54.177Z,37632
2016-04-25T09:53:54.163Z,37344
2016-04-25T09:54:54.151Z,40416
2016-04-25T09:55:54.044Z,45024
2016-04-25T09:56:54.219Z,46528
2016-04-25T09:57:54.143Z,37056
2016-04-25T09:58:54.115Z,35328
2016-04-25T09:59:54.415Z,41120
2016-04-25T10:00:54.105Z,39392
2016-04-25T10:01:54.092Z,38656
2016-04-25T10:02:54.126Z,36064
2016-04-25T10:03:54.065Z,37760
2016-04-25T10:04:54.068Z,34464
2016-04-25T10:05:54.056Z,39232
2016-04-25T10:06:54.059Z,27840
2016-04-25T10:07:54.045Z,28896
2016-04-25T10:08:54.033Z,37920
2016-04-25T10:09:54.020Z,31328
2016-04-25T10:10:54.023Z,29216
2016-04-25T10:11:53.994Z,36128
2016-04-25T10:12:53.996Z,46336
2016-04-25T10:13:54.422Z,52800
2016-04-25T10:14:53.956Z,55648
2016-04-25T10:15:53.958Z,57184
2016-04-25T10:16:53.945Z,57760
2016-04-25T10:17:53.947Z,53984
2016-04-25T10:18:53.935Z,54912
2016-04-25T10:19:53.922Z,51872
2016-04-25T10:20:53.956Z,47328
2016-04-25T10:21:53.927Z,39904
2016-04-25T10:22:53.882Z,36576
2016-04-25T10:23:54.166Z,36032
2016-04-25T10:24:53.872Z,31456
2016-04-25T10:25:53.860Z,25536
2016-04-25T10:26:53.847Z,22528
2016-04-25T10:27:53.834Z,20320
2016-04-25T10:28:53.712Z,15776
2016-04-25T10:29:54.668Z,13904
2016-04-25T10:30:53.921Z,14684
2016-04-25T10:31:53.835Z,15196
2016-04-25T10:32:53.649Z,13860
2016-04-25T10:33:53.652Z,12596
2016-04-25T10:34:53.784Z,16596
2016-04-25T10:35:53.777Z,27104
2016-04-25T10:36:53.889Z,34496
2016-04-25T10:37:53.736Z,32768
2016-04-25T10:38:53.739Z,28512
2016-04-25T10:39:53.710Z,29472
2016-04-25T10:40:53.698Z,33344
2016-04-25T10:41:53.747Z,34880
2016-04-25T10:42:53.670Z,33408
2016-04-25T10:43:56.158Z,35136
2016-04-25T10:44:54.223Z,36480
2016-04-25T10:45:53.648Z,35136
2016-04-25T10:46:53.666Z,31328
2016-04-25T10:47:53.684Z,28672
2016-04-25T10:48:53.641Z,29632
2016-04-25T10:49:53.659Z,25024
2016-04-25T10:50:53.661Z,20608
2016-04-25T10:51:53.570Z,18164
2016-04-25T10:52:53.651Z,17296
2016-04-25T10:53:54.154Z,18192
2016-04-25T10:54:53.562Z,18476
2016-04-25T10:55:53.644Z,17820
2016-04-25T10:56:53.537Z,20448
2016-04-25T10:57:53.524Z,27456
2016-04-25T10:58:54.042Z,31360
2016-04-25T10:59:54.327Z,28352
2016-04-25T11:00:53.501Z,26336
2016-04-25T11:01:53.301Z,25600
2016-04-25T11:02:53.474Z,27296
2016-04-25T11:03:53.446Z,33088
2016-04-25T11:04:53.434Z,35200
2016-04-25T11:05:53.436Z,33760
2016-04-25T11:06:53.407Z,30400
2016-04-25T11:07:53.395Z,26976
2016-04-25T11:08:53.382Z,24672
2016-04-25T11:09:53.368Z,24096
2016-04-25T11:10:53.356Z,25152
2016-04-25T11:11:53.374Z,31424
2016-04-25T11:12:53.345Z,38816
2016-04-25T11:13:52.925Z,42080
2016-04-25T11:14:53.914Z,45504
2016-04-25T11:15:53.306Z,49280
2016-04-25T11:16:53.294Z,52928
2016-04-25T11:17:53.281Z,45760
2016-04-25T11:18:53.284Z,45408
2016-04-25T11:19:53.270Z,50112
2016-04-25T11:20:53.258Z,55136
2016-04-25T11:21:53.245Z,60800
2016-04-25T11:22:53.247Z,67808
2016-04-25T11:23:53.219Z,74528
2016-04-25T11:24:53.205Z,42400
2016-04-25T11:25:53.224Z,44448
2016-04-25T11:26:53.196Z,46016
2016-04-25T11:27:53.199Z,44928
2016-04-25T11:28:53.139Z,45088
2016-04-25T11:29:53.516Z,39200
2016-04-25T11:30:53.144Z,36960
2016-04-25T11:31:53.147Z,42656
2016-04-25T11:32:53.134Z,46464
2016-04-25T11:33:53.137Z,49216
2016-04-25T11:34:53.123Z,51904
2016-04-25T11:35:53.110Z,45856
2016-04-25T11:36:53.410Z,44864
2016-04-25T11:37:53.100Z,42656
2016-04-25T11:38:53.071Z,38496
2016-04-25T11:39:53.074Z,32672
2016-04-25T11:40:53.155Z,29344
2016-04-25T11:41:53.048Z,28608
2016-04-25T11:42:53.036Z,28960
2016-04-25T11:43:54.491Z,29024
2016-04-25T11:44:53.775Z,28064
2016-04-25T11:45:53.044Z,27040
2016-04-25T11:46:53.031Z,30528
2016-04-25T11:47:53.022Z,35360
2016-04-25T11:48:53.014Z,37696
2016-04-25T11:49:52.877Z,38400
2016-04-25T11:50:53.020Z,37856
2016-04-25T11:51:52.976Z,37312
2016-04-25T11:52:52.952Z,37760
2016-04-25T11:53:52.939Z,39232
2016-04-25T11:54:53.301Z,39200
2016-04-25T11:55:52.913Z,37952
2016-04-25T11:56:52.916Z,36448
2016-04-25T11:57:52.919Z,35104
2016-04-25T11:58:53.265Z,34496
2016-04-25T11:59:53.659Z,34304
2016-04-25T12:00:52.848Z,34912
2016-04-25T12:01:52.851Z,34528
2016-04-25T12:02:52.854Z,34016
2016-04-25T12:03:52.826Z,34592
2016-04-25T12:04:52.812Z,35648
2016-04-25T12:05:52.800Z,36864
2016-04-25T12:06:52.802Z,37216
2016-04-25T12:07:52.789Z,39040
2016-04-25T12:08:52.776Z,40320
2016-04-25T12:09:52.779Z,38496
2016-04-25T12:10:52.766Z,37312
2016-04-25T12:11:52.738Z,39904
2016-04-25T12:12:52.725Z,45664
2016-04-25T12:13:54.164Z,50080
2016-04-25T12:14:52.589Z,53568
2016-04-25T12:15:52.701Z,53632
2016-04-25T12:16:52.688Z,53600
2016-04-25T12:17:52.675Z,50912
2016-04-25T12:18:52.694Z,52672
2016-04-25T12:19:52.650Z,48800
2016-04-25T12:20:52.637Z,49184
2016-04-25T12:21:52.624Z,45248
2016-04-25T12:22:52.643Z,40384
2016-04-25T12:23:52.613Z,38400
2016-04-25T12:24:52.585Z,36576
2016-04-25T12:25:52.588Z,33984
2016-04-25T12:26:52.574Z,31264
2016-04-25T12:27:52.562Z,29664
2016-04-25T12:28:52.565Z,29632
2016-04-25T12:29:51.849Z,30752
2016-04-25T12:30:52.539Z,31552
2016-04-25T12:31:52.526Z,36704
2016-04-25T12:32:52.529Z,39744
2016-04-25T12:33:52.500Z,35040
2016-04-25T12:34:52.503Z,31872
2016-04-25T12:35:52.505Z,31392
2016-04-25T12:36:52.461Z,32256
2016-04-25T12:37:52.479Z,32512
2016-04-25T12:38:52.450Z,30432
2016-04-25T12:39:52.438Z,28224
2016-04-25T12:40:52.441Z,24224
2016-04-25T12:41:52.444Z,20096
2016-04-25T12:42:52.399Z,17884
2016-04-25T12:43:52.558Z,16772
2016-04-25T12:44:53.530Z,18076
2016-04-25T12:45:52.375Z,19648
2016-04-25T12:46:52.364Z,18104
2016-04-25T12:47:52.335Z,20064
2016-04-25T12:48:52.337Z,20800
2016-04-25T12:49:52.341Z,22336
2016-04-25T12:50:52.311Z,22912
2016-04-25T12:51:52.298Z,22912
2016-04-25T12:52:52.285Z,24192
2016-04-25T12:53:52.288Z,24672
2016-04-25T12:54:52.259Z,23680
2016-04-25T12:55:52.247Z,23648
2016-04-25T12:56:52.223Z,21856
2016-04-25T12:57:52.226Z,19552
2016-04-25T12:58:52.213Z,19040
2016-04-25T12:59:51.981Z,20960
2016-04-25T13:00:51.453Z,20576
2016-04-25T13:01:52.174Z,19840
2016-04-25T13:02:52.161Z,23360
2016-04-25T13:03:52.179Z,25024
2016-04-25T13:04:52.167Z,29568
2016-04-25T13:05:52.153Z,27328
2016-04-25T13:06:52.094Z,24384
2016-04-25T13:07:51.925Z,21536
2016-04-25T13:08:52.068Z,25056
2016-04-25T13:09:52.055Z,23456
2016-04-25T13:10:52.042Z,21856
2016-04-25T13:11:52.029Z,19968
2016-04-25T13:12:52.031Z,19424
2016-04-25T13:13:52.002Z,19712
2016-04-25T13:14:52.319Z,20192
2016-04-25T13:15:51.994Z,21984
2016-04-25T13:16:51.996Z,25760
2016-04-25T13:17:51.959Z,23424
2016-04-25T13:18:51.945Z,22048
2016-04-25T13:19:51.932Z,19872
2016-04-25T13:20:51.951Z,22400
2016-04-25T13:21:51.984Z,21568
2016-04-25T13:22:51.893Z,19904
2016-04-25T13:23:51.881Z,22880
2016-04-25T13:24:51.852Z,25856
2016-04-25T13:25:51.855Z,25472
2016-04-25T13:26:51.842Z,23552
2016-04-25T13:27:51.828Z,22368